Main page
METAR-TAF:

METAR-TAF

Airports :

Turkmenabat Airport

Türkmenabat, Turkmenistan

latitude: 39-05-00N, longitude: 063-36-48E, elevation: 192 m

Current weather observation

The report was made 20 minutes ago, at 06:00 UTC
Wind 6 kt from the West/Northwest
Temperature 36°C
Humidity 15%
Pressure 1005 hPa
Visibility 10 km or more
no clouds below 1500 m and no cumulonimbus

METAR: UTAV 230600Z 29006KT CAVOK 36/05 Q1005 NOSIG

Time: 11:20 (06:20 UTC)

Forecast

The report was made 1 hour and 50 minutes ago, at 04:30 UTC
Forecast valid from 23 at 06 UTC to 24 at 06 UTC
Wind 14 kt from the North/Northeast
Visibility: 6000 m
Scattered clouds at a height of 5000 ft
Temporary
from 23 at 06 UTC to 23 at 09 UTC
Wind 4 kt from variable directions
Temporary
from 23 at 09 UTC to 23 at 15 UTC
Wind 14 kt from the West/Northwest with gusts up to 24 kt
Visibility: 3000 m
Low drifting dust

TAF: UTAV 230430Z 2306/2406 02014KT 6000 SCT050 530005 TEMPO 2306/2309 VRB04KT TEMPO 2309/2315 30014G24KT 3000 DRDU

Weather observations and forecasts of more than 4000 airports (METAR and TAF reports).

The available stations are represented by yellow and red dots on the map.

Hover mouse over dot to see the name of the station.

Then click to see weather observations and forecasts.

To change the map : click on the green buttons with a black cross to zoom in, on the green button with a dash to zoom out, or on the green arrows for adjacent maps.


METAR-TAF: